Adams City, Colorado
Current Conditions -  °F | °C
As of 3:53 AM on Wednesday 22 Oct 2014 (Local Time) from KDEN Reporting Station
Broken Clouds Broken Clouds  
Wind Chill: 45°   Ceiling: 12000
Heat Index: 49°   Visibility: 10mi
Dew Point: 43°   Wind: 8mph
Humidity: 80%   Direction: 20°NNE
Pressure: 30"   Gusts: NA
Location:  39.8641°N, 104.821°W
Report Text: KDEN 220953Z 02007KT 10SM SCT080 BKN120 09/06 A3000 RMK AO2 SLP097 T00940061
Loading
Personal Weather Stations






























Interactive Weather Map New forecast layout! Learn more

10-Day Weather Forecast

Advertisements
Track Severe Weather on mobile